Time;durP1;ratioP1;P1;durP2;ratioP2;P2;SDS_P1;SDS_P2;PMS_P1;PMS_P2;Temp;Humidity;BMP_temperature;BMP_pressure;BME280_temperature;BME280_humidity;BME280_pressure;Samples;Min_cycle;Max_cycle;Signal;HPM_P1;HPM_P2
2023/10/17 00:01:13;;;;;;;7.60;6.70;;;7.50;99.90;;;;;;5064156;28;20500;-65
2023/10/17 00:03:45;;;;;;;8.23;6.93;;;7.50;99.90;;;;;;5063735;28;20581;-65
2023/10/17 00:06:16;;;;;;;6.20;5.70;;;7.50;99.90;;;;;;5065411;28;20572;-66
2023/10/17 00:08:50;;;;;;;6.40;5.80;;;7.50;99.90;;;;;;5058667;28;20466;-66
2023/10/17 00:11:21;;;;;;;7.43;6.63;;;7.50;99.90;;;;;;5058592;28;20467;-66
2023/10/17 00:14:07;;;;;;;7.00;6.30;;;7.50;99.90;;;;;;5063159;28;20498;-66
2023/10/17 00:16:37;;;;;;;8.40;5.77;;;7.50;99.90;;;;;;5062900;28;20492;-66
2023/10/17 00:19:09;;;;;;;7.23;5.90;;;7.50;99.90;;;;;;5061379;28;20469;-66
2023/10/17 00:21:38;;;;;;;6.90;6.13;;;7.60;99.90;;;;;;5063896;28;21025;-66
2023/10/17 00:24:09;;;;;;;6.10;5.50;;;7.50;99.90;;;;;;5059276;28;20520;-66
2023/10/17 00:26:40;;;;;;;7.47;6.60;;;7.60;99.90;;;;;;5061344;28;20466;-65
2023/10/17 00:29:09;;;;;;;9.40;6.73;;;7.50;99.90;;;;;;5063858;28;20465;-65
2023/10/17 00:31:38;;;;;;;6.90;6.30;;;7.60;99.90;;;;;;5062755;28;20556;-63
2023/10/17 00:34:13;;;;;;;7.60;6.80;;;7.60;99.90;;;;;;5061549;28;20588;-64
2023/10/17 00:36:48;;;;;;;7.20;6.40;;;7.60;99.90;;;;;;5065449;28;20527;-64
2023/10/17 00:39:24;;;;;;;5.70;5.20;;;7.60;99.90;;;;;;5064873;28;20472;-64
2023/10/17 00:44:47;;;;;;;7.67;6.00;;;7.60;99.90;;;;;;5056018;27;1262373;-65
2023/10/17 00:47:18;;;;;;;6.73;6.03;;;7.60;99.90;;;;;;5052760;28;20560;-65
2023/10/17 00:49:49;;;;;;;6.23;5.63;;;7.60;99.90;;;;;;5057401;28;20478;-63
2023/10/17 00:52:24;;;;;;;8.20;6.70;;;7.60;99.90;;;;;;5054579;28;20573;-62
2023/10/17 00:54:54;;;;;;;6.13;5.60;;;7.60;99.90;;;;;;5052599;28;20560;-63
2023/10/17 00:57:26;;;;;;;7.80;5.90;;;7.60;99.90;;;;;;5053528;28;20540;-63
2023/10/17 00:59:57;;;;;;;7.00;6.27;;;7.60;99.90;;;;;;5054095;28;20565;-63
2023/10/17 01:02:29;;;;;;;6.20;5.60;;;7.60;99.90;;;;;;5054093;28;20469;-62
2023/10/17 01:04:59;;;;;;;7.80;6.10;;;7.60;99.90;;;;;;5053626;28;20490;-64
2023/10/17 01:07:29;;;;;;;7.23;5.87;;;7.60;99.90;;;;;;5055239;28;20486;-62
2023/10/17 01:10:07;;;;;;;6.03;5.47;;;7.60;99.90;;;;;;5045725;28;20560;-63
2023/10/17 01:12:41;;;;;;;6.23;5.57;;;7.60;99.90;;;;;;5054749;28;20526;-63
2023/10/17 01:15:19;;;;;;;6.57;5.80;;;7.70;99.90;;;;;;5063215;28;20737;-63
2023/10/17 01:17:48;;;;;;;6.67;5.50;;;7.70;99.90;;;;;;5074386;28;21425;-61
2023/10/17 01:20:19;;;;;;;7.03;5.03;;;7.70;99.90;;;;;;5074902;28;20480;-64
2023/10/17 01:22:47;;;;;;;7.30;5.33;;;7.70;99.90;;;;;;5076318;28;20505;-62
2023/10/17 01:25:24;;;;;;;5.80;5.30;;;7.70;99.90;;;;;;5072753;28;21047;-63
2023/10/17 01:27:53;;;;;;;6.33;5.50;;;7.70;99.90;;;;;;5074402;28;20492;-66
2023/10/17 01:30:22;;;;;;;5.93;5.33;;;7.70;99.90;;;;;;5075002;28;20800;-64
2023/10/17 01:32:51;;;;;;;5.90;5.40;;;7.70;99.90;;;;;;5068061;28;20768;-63
2023/10/17 01:35:20;;;;;;;5.70;5.20;;;7.70;99.90;;;;;;5062864;28;20543;-63
2023/10/17 01:37:48;;;;;;;5.97;5.13;;;7.70;99.90;;;;;;5053238;28;20560;-62
2023/10/17 01:40:22;;;;;;;6.00;5.40;;;7.70;99.90;;;;;;5055969;28;20462;-63
2023/10/17 01:42:51;;;;;;;6.07;5.30;;;7.70;99.90;;;;;;5052810;28;20983;-62
2023/10/17 01:45:23;;;;;;;6.27;5.67;;;7.70;99.90;;;;;;5047826;28;20513;-63
2023/10/17 01:47:52;;;;;;;5.37;4.93;;;7.70;99.90;;;;;;5053377;28;20559;-63
2023/10/17 01:50:20;;;;;;;5.87;5.27;;;7.70;99.90;;;;;;5053493;28;20469;-63
2023/10/17 01:52:52;;;;;;;6.80;5.63;;;7.70;99.90;;;;;;5052490;28;20974;-64
2023/10/17 01:55:24;;;;;;;5.43;4.93;;;7.80;99.90;;;;;;5047248;28;20478;-63
2023/10/17 01:57:57;;;;;;;6.27;5.63;;;7.80;99.90;;;;;;5040915;28;20488;-63
2023/10/17 02:00:37;;;;;;;7.40;5.10;;;7.80;99.90;;;;;;5038788;28;20483;-63
2023/10/17 02:03:06;;;;;;;6.00;5.40;;;7.80;99.90;;;;;;5037812;28;20478;-63
2023/10/17 02:05:36;;;;;;;5.40;4.90;;;7.80;99.90;;;;;;5039796;28;20495;-65
2023/10/17 02:08:06;;;;;;;6.17;5.20;;;7.80;99.90;;;;;;5040629;28;20501;-64
2023/10/17 02:10:36;;;;;;;6.67;4.97;;;7.80;99.90;;;;;;5041605;28;20470;-66
2023/10/17 02:13:06;;;;;;;7.20;5.47;;;7.80;99.90;;;;;;5039381;28;20474;-63
2023/10/17 02:15:37;;;;;;;6.03;5.53;;;7.80;99.90;;;;;;5039428;28;20475;-62
2023/10/17 02:18:12;;;;;;;7.20;4.70;;;7.80;99.90;;;;;;5037737;28;20983;-62
2023/10/17 02:20:47;;;;;;;5.10;4.70;;;7.80;99.90;;;;;;5040167;28;20939;-63
2023/10/17 02:23:19;;;;;;;7.40;6.07;;;7.80;99.90;;;;;;5039974;28;20546;-65
2023/10/17 02:25:50;;;;;;;6.03;5.07;;;7.80;99.90;;;;;;5040039;28;20501;-63
2023/10/17 02:28:18;;;;;;;5.30;4.80;;;7.80;99.90;;;;;;5037978;28;21324;-63
2023/10/17 02:30:46;;;;;;;6.70;4.77;;;7.80;99.90;;;;;;5039136;28;20471;-63
2023/10/17 02:33:17;;;;;;;5.37;4.57;;;7.80;99.90;;;;;;5039872;28;20513;-65
2023/10/17 02:36:05;;;;;;;6.03;4.60;;;7.80;99.90;;;;;;5039445;28;20485;-65
2023/10/17 02:38:34;;;;;;;5.07;4.50;;;7.80;99.90;;;;;;5039469;28;21099;-65
2023/10/17 02:41:06;;;;;;;5.13;4.63;;;7.80;99.90;;;;;;5041248;28;20524;-65
2023/10/17 02:43:37;;;;;;;5.00;4.50;;;7.80;99.90;;;;;;5038249;28;20981;-65
2023/10/17 02:46:05;;;;;;;6.67;4.77;;;7.80;99.90;;;;;;5037934;28;20952;-66
2023/10/17 02:48:38;;;;;;;5.43;4.83;;;7.80;99.90;;;;;;5037101;28;20862;-65
2023/10/17 02:51:30;;;;;;;7.90;4.90;;;7.80;99.90;;;;;;5040142;28;20479;-66
2023/10/17 02:54:01;;;;;;;5.23;4.40;;;7.90;99.90;;;;;;5040069;28;20872;-65
2023/10/17 02:56:35;;;;;;;5.27;4.50;;;7.80;99.90;;;;;;5040592;28;21031;-66
2023/10/17 02:59:06;;;;;;;5.53;4.20;;;7.90;99.90;;;;;;5040736;28;20482;-65
2023/10/17 03:01:36;;;;;;;5.43;4.83;;;7.80;99.90;;;;;;5036732;28;20520;-65
2023/10/17 03:04:09;;;;;;;5.10;4.60;;;7.80;99.90;;;;;;5039234;28;20486;-65
2023/10/17 03:06:38;;;;;;;4.40;4.00;;;7.80;99.90;;;;;;5038662;28;20466;-65
2023/10/17 03:09:32;;;;;;;4.93;4.47;;;7.80;99.90;;;;;;5038679;28;20477;-65
2023/10/17 03:12:09;;;;;;;5.30;4.87;;;7.90;99.90;;;;;;5039979;28;20479;-66
2023/10/17 03:15:16;;;;;;;5.53;5.03;;;7.90;99.90;;;;;;5040584;28;20545;-65
2023/10/17 03:17:28;;;;;;;5.80;4.57;;;7.80;99.90;;;;;;5040688;28;20843;-65
2023/10/17 03:19:57;;;;;;;5.40;4.47;;;7.80;99.90;;;;;;5039176;28;20556;-66
2023/10/17 03:22:26;;;;;;;5.20;4.30;;;7.90;99.90;;;;;;5039212;28;20896;-66
2023/10/17 03:25:01;;;;;;;4.40;4.00;;;7.80;99.90;;;;;;5035523;28;20977;-65
2023/10/17 03:27:37;;;;;;;5.20;4.50;;;7.80;99.90;;;;;;5039345;28;20557;-66
2023/10/17 03:30:08;;;;;;;4.50;4.10;;;7.80;99.90;;;;;;5038368;28;20527;-66
2023/10/17 03:32:44;;;;;;;5.10;4.60;;;7.80;99.90;;;;;;5041178;28;20838;-66
2023/10/17 03:35:20;;;;;;;5.60;4.90;;;7.80;99.90;;;;;;5037198;28;20486;-65
2023/10/17 03:37:49;;;;;;;5.20;4.33;;;7.80;99.90;;;;;;5039738;28;21049;-66
2023/10/17 03:40:29;;;;;;;4.77;4.27;;;7.90;99.90;;;;;;5040094;28;20479;-66
2023/10/17 03:43:11;;;;;;;6.50;4.80;;;7.90;99.90;;;;;;5037179;28;20968;-65
2023/10/17 03:45:51;;;;;;;5.83;4.60;;;7.90;99.90;;;;;;5035816;28;20494;-66
2023/10/17 03:48:21;;;;;;;6.23;4.70;;;7.90;99.90;;;;;;5039088;28;20529;-66
2023/10/17 03:51:08;;;;;;;4.33;3.93;;;7.90;99.90;;;;;;5038302;28;20498;-68
2023/10/17 03:53:42;;;;;;;6.13;4.50;;;7.90;99.90;;;;;;5041287;28;20931;-65
2023/10/17 03:56:18;;;;;;;5.27;4.70;;;7.90;99.90;;;;;;5039467;28;20989;-65
2023/10/17 03:58:53;;;;;;;6.77;5.10;;;7.90;99.90;;;;;;5036266;28;20547;-65
2023/10/17 04:01:23;;;;;;;6.00;4.20;;;7.90;99.90;;;;;;5040110;28;20463;-65
2023/10/17 04:03:54;;;;;;;7.17;4.20;;;7.90;99.90;;;;;;5040765;28;20495;-69
2023/10/17 04:06:32;;;;;;;6.30;4.20;;;7.90;99.90;;;;;;5059473;28;20539;-65
2023/10/17 04:11:58;;;;;;;4.63;4.23;;;7.80;99.90;;;;;;5083277;27;20559;-66
2023/10/17 04:14:29;;;;;;;5.40;3.97;;;7.80;99.90;;;;;;5081155;28;20871;-67
2023/10/17 04:16:57;;;;;;;4.20;3.80;;;7.80;99.90;;;;;;5083167;28;20519;-67
2023/10/17 04:19:26;;;;;;;5.93;4.30;;;7.80;99.90;;;;;;5083306;28;20543;-67
2023/10/17 04:22:02;;;;;;;6.70;5.63;;;7.80;99.90;;;;;;5082208;28;20492;-67
2023/10/17 04:24:48;;;;;;;5.00;4.50;;;7.80;99.90;;;;;;5081538;28;21015;-67
2023/10/17 04:27:22;;;;;;;4.83;3.90;;;7.80;99.90;;;;;;5083349;28;20476;-68
2023/10/17 04:29:57;;;;;;;5.37;4.43;;;7.80;99.90;;;;;;5083663;28;20472;-67
2023/10/17 04:32:28;;;;;;;4.43;4.03;;;7.80;99.90;;;;;;5078750;28;20900;-67
2023/10/17 04:34:57;;;;;;;5.00;3.97;;;7.80;99.90;;;;;;5071338;28;20489;-67
2023/10/17 04:37:33;;;;;;;4.37;3.97;;;7.80;99.90;;;;;;5083104;28;20468;-68
2023/10/17 04:42:56;;;;;;;5.17;4.00;;;7.80;99.90;;;;;;5081549;28;20570;-68
2023/10/17 04:45:28;;;;;;;5.70;3.90;;;7.80;99.90;;;;;;5081766;28;20563;-67
2023/10/17 04:50:45;;;;;;;5.30;4.20;;;7.80;99.90;;;;;;5082507;28;20966;-67
2023/10/17 04:53:19;;;;;;;4.27;3.90;;;7.80;99.90;;;;;;5080581;28;20475;-68
2023/10/17 04:58:42;;;;;;;4.20;3.80;;;7.90;99.90;;;;;;5116215;27;20567;-65
2023/10/17 05:01:35;;;;;;;5.50;3.63;;;7.90;99.90;;;;;;5113828;27;21085;-66
2023/10/17 05:04:13;;;;;;;4.70;3.90;;;7.90;99.90;;;;;;5111580;27;20562;-66
2023/10/17 06:18:56;;;;;;;5.80;4.60;;;8.20;99.90;;;;;;5059773;28;20512;-67
2023/10/17 06:21:36;;;;;;;5.47;4.97;;;8.20;99.90;;;;;;5063190;28;20478;-66
2023/10/17 06:24:18;;;;;;;6.30;5.43;;;8.20;99.90;;;;;;5060761;28;20485;-66
2023/10/17 06:26:58;;;;;;;7.57;5.07;;;8.20;99.90;;;;;;5083293;28;20472;-66
2023/10/17 06:32:48;;;;;;;5.43;4.73;;;8.30;99.90;;;;;;5082177;28;20479;-67
2023/10/17 06:35:20;;;;;;;5.30;4.63;;;8.30;99.90;;;;;;5080962;28;20491;-67
2023/10/17 06:37:51;;;;;;;5.40;4.90;;;8.30;99.90;;;;;;5080546;28;20476;-66
2023/10/17 06:40:29;;;;;;;8.33;5.30;;;8.30;99.90;;;;;;5073663;28;21437;-67
2023/10/17 06:42:59;;;;;;;6.97;5.70;;;8.40;99.90;;;;;;5079928;28;20468;-67
2023/10/17 06:45:29;;;;;;;5.70;5.10;;;8.40;99.90;;;;;;5078911;28;20488;-67
2023/10/17 06:47:58;;;;;;;5.43;4.83;;;8.40;99.90;;;;;;5083070;28;20642;-68
2023/10/17 06:53:27;;;;;;;6.67;4.93;;;8.40;99.90;;;;;;5080937;28;20472;-67
2023/10/17 06:56:04;;;;;;;5.53;5.03;;;8.50;99.90;;;;;;5082837;28;20594;-66
2023/10/17 06:58:32;;;;;;;6.67;5.17;;;8.50;99.90;;;;;;5081733;28;20965;-67
2023/10/17 07:01:04;;;;;;;10.93;5.57;;;8.60;99.90;;;;;;5082470;28;20476;-67
2023/10/17 07:03:34;;;;;;;8.60;5.03;;;8.60;99.90;;;;;;5082382;28;20591;-66
2023/10/17 07:06:11;;;;;;;13.57;5.87;;;8.60;99.90;;;;;;5081443;28;20989;-67
2023/10/17 07:08:46;;;;;;;9.00;5.37;;;8.70;99.90;;;;;;5079650;28;20579;-66
2023/10/17 07:11:26;;;;;;;12.20;6.10;;;8.70;99.90;;;;;;5076011;28;20461;-67
2023/10/17 07:13:59;;;;;;;9.10;5.00;;;8.70;99.90;;;;;;5080607;28;20620;-66
2023/10/17 07:16:32;;;;;;;7.53;5.30;;;8.80;99.90;;;;;;5056426;28;21035;-67
2023/10/17 07:19:46;;;;;;;8.03;5.97;;;8.80;99.90;;;;;;5061211;28;20472;-67
2023/10/17 07:22:05;;;;;;;8.00;5.40;;;8.80;99.90;;;;;;5060254;28;20562;-66
2023/10/17 07:24:36;;;;;;;6.90;5.00;;;8.90;99.90;;;;;;5060775;28;20514;-67
2023/10/17 07:27:11;;;;;;;6.00;4.80;;;8.90;99.90;;;;;;5058527;28;20469;-67
2023/10/17 07:29:45;;;;;;;7.40;5.20;;;9.00;99.90;;;;;;5062048;28;21058;-67
2023/10/17 07:32:16;;;;;;;5.80;5.00;;;9.00;99.90;;;;;;5061151;28;20469;-67
2023/10/17 07:34:45;;;;;;;10.50;5.30;;;9.10;99.90;;;;;;5060853;28;20529;-66
2023/10/17 07:37:22;;;;;;;6.67;5.33;;;9.10;99.90;;;;;;5048397;28;20470;-67
2023/10/17 07:40:16;;;;;;;5.07;4.53;;;9.10;99.90;;;;;;5062037;28;20469;-67
2023/10/17 07:42:45;;;;;;;6.93;5.27;;;9.10;99.90;;;;;;5061557;28;21041;-66
2023/10/17 07:45:21;;;;;;;5.67;4.80;;;9.20;99.90;;;;;;5060418;28;20573;-67
2023/10/17 07:47:55;;;;;;;5.60;4.63;;;9.20;99.90;;;;;;5060738;28;20541;-67
2023/10/17 07:50:25;;;;;;;7.50;4.80;;;9.30;99.90;;;;;;5060083;28;20472;-66
2023/10/17 07:52:59;;;;;;;4.57;3.87;;;9.30;99.90;;;;;;5060774;28;20527;-67
2023/10/17 07:55:38;;;;;;;5.30;4.80;;;9.30;99.90;;;;;;5058246;28;20512;-67
2023/10/17 07:58:09;;;;;;;6.80;5.50;;;9.40;99.90;;;;;;5060586;28;20493;-67
2023/10/17 08:00:38;;;;;;;9.83;5.07;;;9.40;99.90;;;;;;5058263;28;20470;-66
2023/10/17 08:03:14;;;;;;;11.90;5.23;;;9.40;99.90;;;;;;5059810;28;20470;-65
2023/10/17 08:05:58;;;;;;;8.03;5.37;;;9.50;99.90;;;;;;5058633;28;20983;-69
2023/10/17 08:08:32;;;;;;;5.87;4.70;;;9.50;99.90;;;;;;5060836;28;20477;-67
2023/10/17 08:11:05;;;;;;;7.00;4.60;;;9.60;99.90;;;;;;5058338;28;20470;-67
2023/10/17 08:13:33;;;;;;;6.03;4.13;;;9.60;99.90;;;;;;5060637;28;20461;-67
2023/10/17 08:16:10;;;;;;;5.87;4.50;;;9.60;99.90;;;;;;5063902;28;20564;-67
2023/10/17 08:18:41;;;;;;;4.47;3.20;;;9.60;99.90;;;;;;5064111;28;20468;-66
2023/10/17 08:23:56;;;;;;;3.67;3.13;;;9.70;99.90;;;;;;5065975;28;20494;-66
2023/10/17 08:26:29;;;;;;;4.37;2.80;;;9.80;99.90;;;;;;5056934;28;20516;-67
2023/10/17 08:29:01;;;;;;;3.03;2.37;;;9.80;99.90;;;;;;5059493;28;20490;-67
2023/10/17 08:31:36;;;;;;;5.33;2.60;;;9.90;99.90;;;;;;5059414;28;20466;-66
2023/10/17 08:34:12;;;;;;;2.13;1.93;;;9.90;99.90;;;;;;5059029;28;20492;-66
2023/10/17 08:36:42;;;;;;;2.83;2.53;;;10.00;99.90;;;;;;5056293;28;20935;-66
2023/10/17 08:41:59;;;;;;;3.80;2.70;;;10.10;99.90;;;;;;5057536;28;20473;-67
2023/10/17 08:44:31;;;;;;;4.10;2.60;;;10.10;99.90;;;;;;5057774;28;20478;-68
2023/10/17 08:47:00;;;;;;;3.90;2.40;;;10.20;99.90;;;;;;5058833;28;20506;-68
2023/10/17 08:49:29;;;;;;;3.23;2.50;;;10.30;99.90;;;;;;5057014;28;20500;-68
2023/10/17 08:51:57;;;;;;;4.83;2.40;;;10.30;99.90;;;;;;5057144;28;20561;-68
2023/10/17 08:54:28;;;;;;;3.07;2.23;;;10.40;99.90;;;;;;5056179;28;20794;-66
2023/10/17 08:56:59;;;;;;;3.80;2.83;;;10.40;99.90;;;;;;5057539;28;20482;-68
2023/10/17 08:59:58;;;;;;;4.60;2.70;;;10.50;99.90;;;;;;5056458;28;20529;-67
2023/10/17 09:02:29;;;;;;;6.17;2.70;;;10.50;99.90;;;;;;5057746;28;20537;-68
2023/10/17 09:05:00;;;;;;;3.60;2.60;;;10.50;99.90;;;;;;5058146;28;20573;-67
2023/10/17 09:07:32;;;;;;;3.23;2.63;;;10.50;99.90;;;;;;5059547;28;20473;-66
2023/10/17 09:10:04;;;;;;;4.03;2.17;;;10.50;99.90;;;;;;5056768;28;20548;-67
2023/10/17 09:12:42;;;;;;;5.07;2.50;;;10.60;99.90;;;;;;5057577;28;20551;-66
2023/10/17 09:15:29;;;;;;;2.30;1.80;;;10.60;99.90;;;;;;5067312;28;20572;-65
2023/10/17 09:18:00;;;;;;;3.70;2.77;;;10.60;99.90;;;;;;5079036;28;20469;-67
2023/10/17 09:20:39;;;;;;;3.13;1.90;;;10.70;99.90;;;;;;5078947;28;20504;-69
2023/10/17 09:23:22;;;;;;;4.10;1.80;;;10.70;99.90;;;;;;5080130;28;20848;-68
2023/10/17 09:25:55;;;;;;;2.13;1.80;;;10.80;99.90;;;;;;5075198;28;20581;-66
2023/10/17 09:28:25;;;;;;;3.67;2.30;;;10.80;99.90;;;;;;5077547;28;20535;-67
2023/10/17 09:30:58;;;;;;;3.93;1.90;;;10.90;99.90;;;;;;5077205;28;21022;-66
2023/10/17 09:33:30;;;;;;;6.37;2.00;;;11.00;99.90;;;;;;5079583;28;20941;-69
2023/10/17 09:36:03;;;;;;;4.90;1.80;;;11.00;99.90;;;;;;5077979;28;20469;-67
2023/10/17 09:38:32;;;;;;;4.63;2.00;;;11.10;99.90;;;;;;5076900;28;20464;-66
2023/10/17 09:41:01;;;;;;;3.57;1.50;;;11.20;99.90;;;;;;5079339;28;20560;-67
2023/10/17 09:43:46;;;;;;;1.97;1.70;;;11.20;99.90;;;;;;5077384;28;21098;-67
2023/10/17 09:46:14;;;;;;;5.67;1.53;;;11.30;99.90;;;;;;5082404;28;20560;-67
2023/10/17 09:48:46;;;;;;;1.93;1.20;;;11.30;99.90;;;;;;5081101;28;20907;-66
2023/10/17 09:51:21;;;;;;;2.13;1.70;;;11.40;99.90;;;;;;5082978;28;20469;-67
2023/10/17 09:53:53;;;;;;;3.80;1.90;;;11.40;99.90;;;;;;5083162;28;20491;-66
2023/10/17 09:56:27;;;;;;;3.57;1.47;;;11.40;99.90;;;;;;5080081;28;21022;-66
2023/10/17 09:59:02;;;;;;;1.77;1.50;;;11.40;99.90;;;;;;5081642;28;20521;-67
2023/10/17 10:01:32;;;;;;;2.43;1.20;;;11.40;99.90;;;;;;5081302;28;20472;-67
2023/10/17 10:04:03;;;;;;;3.47;1.57;;;11.40;99.90;;;;;;5081490;28;21013;-66
2023/10/17 10:06:32;;;;;;;4.10;1.30;;;11.50;99.90;;;;;;5082220;28;20473;-67
2023/10/17 10:09:26;;;;;;;3.50;1.40;;;11.50;99.90;;;;;;5081592;28;20491;-66
2023/10/17 10:11:58;;;;;;;4.50;1.40;;;11.50;99.90;;;;;;5080008;28;20559;-67
2023/10/17 10:14:47;;;;;;;3.70;1.50;;;11.50;99.90;;;;;;5081504;28;20481;-67
2023/10/17 10:17:15;;;;;;;2.87;1.40;;;11.50;99.90;;;;;;5081475;28;20501;-68
2023/10/17 10:20:02;;;;;;;2.20;1.93;;;11.60;99.90;;;;;;5082190;28;20885;-67
2023/10/17 10:22:56;;;;;;;2.73;1.30;;;11.60;99.90;;;;;;5081752;28;20456;-68
2023/10/17 10:25:23;;;;;;;2.70;1.50;;;11.70;99.90;;;;;;5080592;27;20561;-65
2023/10/17 10:28:26;;;;;;;1.93;1.40;;;11.70;99.90;;;;;;5081313;28;20532;-68
2023/10/17 10:30:56;;;;;;;2.30;1.23;;;11.70;99.90;;;;;;5080666;28;20491;-68
2023/10/17 10:33:28;;;;;;;2.00;1.20;;;11.80;99.90;;;;;;5080645;28;20501;-66
2023/10/17 10:35:57;;;;;;;2.90;1.50;;;11.80;99.90;;;;;;5080294;28;20501;-68
2023/10/17 10:38:27;;;;;;;2.30;1.30;;;11.90;99.90;;;;;;5080941;28;20473;-67
2023/10/17 10:40:55;;;;;;;1.33;1.00;;;12.00;99.90;;;;;;5081788;28;20469;-68
2023/10/17 10:43:25;;;;;;;2.53;1.40;;;12.10;99.90;;;;;;5077373;28;20474;-68
2023/10/17 10:45:55;;;;;;;2.13;1.33;;;12.20;99.90;;;;;;5081921;28;20981;-68
2023/10/17 10:48:26;;;;;;;2.07;1.17;;;12.30;99.90;;;;;;5081568;28;20461;-68
2023/10/17 10:50:55;;;;;;;2.40;1.40;;;12.40;99.90;;;;;;5077765;28;20492;-67
2023/10/17 10:53:27;;;;;;;2.60;1.50;;;12.50;99.90;;;;;;5081338;28;20552;-66
2023/10/17 10:55:59;;;;;;;2.70;1.40;;;12.50;99.90;;;;;;5080774;28;20481;-66
2023/10/17 10:58:28;;;;;;;1.93;1.10;;;12.60;99.90;;;;;;5079336;28;20892;-68
2023/10/17 11:01:00;;;;;;;1.47;1.20;;;12.70;99.90;;;;;;5082056;28;20488;-67
2023/10/17 11:03:30;;;;;;;3.83;1.70;;;12.90;99.90;;;;;;5081439;28;20984;-67
2023/10/17 11:06:03;;;;;;;4.10;1.80;;;13.00;99.90;;;;;;5079918;28;20482;-66
2023/10/17 11:08:36;;;;;;;4.40;1.80;;;13.00;99.90;;;;;;5079803;28;20701;-66
2023/10/17 11:11:04;;;;;;;2.97;1.60;;;13.10;99.90;;;;;;5080509;28;21005;-67
2023/10/17 11:13:34;;;;;;;2.20;1.53;;;13.20;99.90;;;;;;5078814;28;20511;-67
2023/10/17 11:16:04;;;;;;;1.83;1.30;;;13.30;99.90;;;;;;5079229;28;20480;-67
2023/10/17 11:18:35;;;;;;;1.70;1.60;;;13.40;99.90;;;;;;5080738;28;20465;-67
2023/10/17 11:21:05;;;;;;;1.70;1.50;;;13.70;99.90;;;;;;5079418;28;20992;-67
2023/10/17 11:23:37;;;;;;;2.00;1.30;;;13.90;99.90;;;;;;5079154;28;21129;-66
2023/10/17 11:26:11;;;;;;;1.80;1.37;;;14.10;99.90;;;;;;5078757;28;20513;-67
2023/10/17 11:28:55;;;;;;;1.73;1.20;;;14.20;99.90;;;;;;5080091;28;20468;-67
2023/10/17 11:31:24;;;;;;;1.60;1.50;;;14.40;99.90;;;;;;5078265;28;20484;-67
2023/10/17 11:34:02;;;;;;;2.53;1.20;;;14.50;99.90;;;;;;5080560;28;20490;-67
2023/10/17 11:36:36;;;;;;;1.93;1.20;;;14.80;99.90;;;;;;5059413;28;20473;-67
2023/10/17 11:39:05;;;;;;;2.37;1.40;;;14.90;99.90;;;;;;5058227;28;20505;-68
2023/10/17 11:41:46;;;;;;;1.77;1.13;;;15.40;99.90;;;;;;5058413;28;20519;-67
2023/10/17 11:44:15;;;;;;;3.60;1.40;;;16.10;99.90;;;;;;5061963;28;20613;-67
2023/10/17 11:46:55;;;;;;;1.70;1.17;;;16.70;99.90;;;;;;5079583;28;20468;-67
2023/10/17 11:49:30;;;;;;;2.27;1.10;;;17.60;99.00;;;;;;5079428;28;20464;-68
2023/10/17 11:51:59;;;;;;;2.67;1.50;;;19.40;92.80;;;;;;5080620;28;20504;-67
2023/10/17 11:54:28;;;;;;;2.93;1.30;;;21.30;77.10;;;;;;5078957;28;20481;-67
2023/10/17 11:57:11;;;;;;;2.03;1.10;;;23.00;64.20;;;;;;5077996;28;20576;-68
2023/10/17 11:59:39;;;;;;;1.20;1.00;;;24.90;55.60;;;;;;5078814;28;21065;-68
2023/10/17 12:02:11;;;;;;;1.70;1.30;;;26.90;48.90;;;;;;5078002;28;20479;-66
2023/10/17 12:04:40;;;;;;;2.40;1.27;;;29.00;43.10;;;;;;5076378;28;20488;-66
2023/10/17 12:07:08;;;;;;;1.10;1.00;;;30.60;39.40;;;;;;5078859;28;20468;-66
2023/10/17 12:09:36;;;;;;;3.57;1.00;;;31.90;36.40;;;;;;5079107;28;20503;-66
2023/10/17 12:12:06;;;;;;;1.40;1.10;;;32.90;34.50;;;;;;5079262;28;20471;-66
2023/10/17 12:14:35;;;;;;;1.77;1.13;;;33.40;31.10;;;;;;5075138;28;21009;-66
2023/10/17 12:17:03;;;;;;;1.77;1.00;;;33.40;29.50;;;;;;5079615;28;20553;-67
2023/10/17 12:19:32;;;;;;;2.20;1.03;;;31.80;30.10;;;;;;5080083;28;20460;-66
2023/10/17 12:22:01;;;;;;;1.43;1.10;;;30.80;31.20;;;;;;5078214;28;20547;-66
2023/10/17 12:24:31;;;;;;;2.33;1.13;;;30.20;32.40;;;;;;5075576;28;20479;-66
2023/10/17 12:27:03;;;;;;;2.13;1.10;;;29.50;32.30;;;;;;5079283;28;20464;-66
2023/10/17 12:29:31;;;;;;;0.77;0.73;;;28.80;33.30;;;;;;5076153;28;20524;-66
2023/10/17 12:31:59;;;;;;;2.13;0.87;;;28.50;33.70;;;;;;5078869;28;20506;-66
2023/10/17 12:34:28;;;;;;;0.90;0.80;;;28.60;33.90;;;;;;5076955;28;20534;-71
2023/10/17 12:36:57;;;;;;;1.83;1.00;;;28.30;34.40;;;;;;5078114;28;20468;-66
2023/10/17 12:39:31;;;;;;;0.87;0.80;;;28.80;33.80;;;;;;5078470;28;20464;-66
2023/10/17 12:41:59;;;;;;;1.03;0.87;;;29.40;33.70;;;;;;5075433;28;20778;-66
2023/10/17 12:44:28;;;;;;;1.23;0.90;;;30.10;32.20;;;;;;5077556;28;21033;-67
2023/10/17 12:46:56;;;;;;;1.27;0.80;;;29.50;33.20;;;;;;5078526;28;20543;-66
2023/10/17 12:49:24;;;;;;;1.60;0.80;;;28.30;32.40;;;;;;5078397;28;20507;-66
2023/10/17 12:51:53;;;;;;;1.00;0.90;;;28.40;33.30;;;;;;5079113;28;20464;-66
2023/10/17 12:54:21;;;;;;;0.83;0.80;;;28.00;32.70;;;;;;5078020;28;20546;-66
2023/10/17 12:56:51;;;;;;;1.13;0.80;;;26.50;32.80;;;;;;5075369;28;20808;-66
2023/10/17 12:59:19;;;;;;;2.17;0.90;;;24.70;34.80;;;;;;5078263;28;20881;-68
2023/10/17 13:01:48;;;;;;;1.00;0.70;;;24.60;36.70;;;;;;5078645;28;20582;-66
2023/10/17 13:04:19;;;;;;;3.73;0.90;;;25.80;37.60;;;;;;5077742;28;20500;-66
2023/10/17 13:06:53;;;;;;;1.50;0.90;;;27.20;36.30;;;;;;5079840;28;20474;-66
2023/10/17 13:09:22;;;;;;;1.13;0.90;;;28.30;36.10;;;;;;5079067;28;20477;-66
2023/10/17 13:11:52;;;;;;;1.33;0.80;;;29.00;33.70;;;;;;5078647;28;20495;-65
2023/10/17 13:14:20;;;;;;;0.77;0.60;;;28.70;32.40;;;;;;5075825;28;20531;-67
2023/10/17 13:16:48;;;;;;;0.87;0.80;;;27.50;34.60;;;;;;5077803;28;20535;-66
2023/10/17 13:19:18;;;;;;;1.27;0.83;;;26.30;34.90;;;;;;5080281;28;20850;-66
2023/10/17 13:21:46;;;;;;;0.93;0.67;;;24.50;36.90;;;;;;5083189;28;20494;-65
2023/10/17 13:24:15;;;;;;;1.60;0.60;;;22.80;38.70;;;;;;5080808;28;20986;-66
2023/10/17 13:26:45;;;;;;;0.93;0.80;;;21.50;39.90;;;;;;5082586;28;20476;-67
2023/10/17 13:29:15;;;;;;;0.80;0.70;;;20.50;41.30;;;;;;5081811;28;20469;-69
2023/10/17 13:31:43;;;;;;;0.73;0.70;;;19.80;43.20;;;;;;5081335;28;21250;-68
2023/10/17 13:34:12;;;;;;;1.27;0.90;;;19.30;44.30;;;;;;5082361;28;20497;-68
2023/10/17 13:36:39;;;;;;;0.87;0.70;;;18.80;45.80;;;;;;5082907;28;20561;-68
2023/10/17 13:39:08;;;;;;;1.17;0.57;;;18.20;47.80;;;;;;5084157;28;20472;-68
2023/10/17 13:41:36;;;;;;;1.33;0.70;;;17.70;49.90;;;;;;5081074;28;20518;-67
2023/10/17 13:44:06;;;;;;;1.40;1.10;;;17.20;53.40;;;;;;5082229;28;20481;-68
2023/10/17 13:46:36;;;;;;;0.97;0.60;;;16.90;55.80;;;;;;5080723;28;20546;-68
2023/10/17 13:49:05;;;;;;;0.83;0.73;;;16.50;56.60;;;;;;5080617;28;20910;-69
2023/10/17 13:51:35;;;;;;;1.20;0.77;;;16.30;59.20;;;;;;5082742;28;20920;-68
2023/10/17 13:54:05;;;;;;;0.87;0.70;;;16.00;69.60;;;;;;5081323;28;20494;-67
2023/10/17 13:56:34;;;;;;;1.10;0.60;;;15.70;80.60;;;;;;5079829;28;20481;-69
2023/10/17 13:59:03;;;;;;;2.30;0.80;;;15.50;82.80;;;;;;5082061;28;20473;-68
2023/10/17 14:01:41;;;;;;;0.70;0.70;;;15.30;86.10;;;;;;5081311;28;20496;-68
2023/10/17 14:04:11;;;;;;;1.07;0.80;;;15.20;83.70;;;;;;5080851;28;21055;-68
2023/10/17 14:06:40;;;;;;;0.90;0.70;;;15.20;91.90;;;;;;5081534;28;20475;-68
2023/10/17 14:09:14;;;;;;;1.90;1.00;;;15.00;92.80;;;;;;5081304;28;20962;-68
2023/10/17 14:11:43;;;;;;;1.53;0.80;;;14.90;97.60;;;;;;5081362;28;20468;-68
2023/10/17 14:14:11;;;;;;;1.67;0.80;;;14.80;98.80;;;;;;5077438;28;20576;-66
2023/10/17 14:16:43;;;;;;;1.73;0.90;;;14.60;99.90;;;;;;5082068;28;20551;-66
2023/10/17 14:19:18;;;;;;;1.23;0.80;;;14.50;99.90;;;;;;5081531;28;20472;-66
2023/10/17 14:22:01;;;;;;;1.00;0.80;;;14.40;99.90;;;;;;5081158;28;20492;-66
2023/10/17 14:24:38;;;;;;;1.13;0.80;;;14.40;99.90;;;;;;5081697;28;20639;-66
2023/10/17 14:27:11;;;;;;;2.70;1.07;;;14.40;99.90;;;;;;5081315;28;20475;-66
2023/10/17 14:29:43;;;;;;;1.00;0.80;;;14.40;99.90;;;;;;5078008;28;20475;-64
2023/10/17 14:32:11;;;;;;;1.13;0.80;;;14.40;99.90;;;;;;5080737;28;20514;-66
2023/10/17 14:34:41;;;;;;;2.77;1.20;;;14.30;99.90;;;;;;5080040;28;20809;-66
2023/10/17 14:37:10;;;;;;;1.17;0.70;;;14.20;99.90;;;;;;5080786;28;20500;-66
2023/10/17 14:39:38;;;;;;;1.60;0.70;;;14.00;99.90;;;;;;5080880;28;20547;-64
2023/10/17 14:42:06;;;;;;;1.73;0.97;;;13.90;99.90;;;;;;5079840;28;20553;-66
2023/10/17 14:44:34;;;;;;;1.00;0.80;;;13.80;99.90;;;;;;5081284;28;20986;-65
2023/10/17 14:47:02;;;;;;;1.73;0.90;;;13.70;99.90;;;;;;5080119;28;20504;-66
2023/10/17 14:49:30;;;;;;;1.73;0.90;;;13.60;99.90;;;;;;5080412;28;20986;-66
2023/10/17 14:51:59;;;;;;;1.80;0.83;;;13.50;99.90;;;;;;5080016;28;20492;-64
2023/10/17 14:54:27;;;;;;;1.20;0.87;;;13.50;99.90;;;;;;5078159;28;21079;-66
2023/10/17 14:56:58;;;;;;;0.80;0.80;;;13.50;99.90;;;;;;5080309;28;20546;-66
2023/10/17 14:59:26;;;;;;;1.40;0.80;;;13.40;99.90;;;;;;5079935;28;20864;-64